Palmers Lookout, Australia
Current Conditions -  °F | °C
As of 10:00 AM on Thursday 27 Nov 2014 (Local Time) from YMHB Reporting Station
Scattered Clouds Scattered Clouds  
Wind Chill: 59°   Ceiling: Unl
Heat Index: 59°   Visibility: 6mi
Dew Point: 34°   Wind: 21mph
Humidity: 39%   Direction: 210°SSW
Pressure: 30.21"   Gusts: NA
Location:  43.17°S, 147.83°E
Report Text: YMHB 262300Z 21018KT 9999 FEW045 SCT050 15/01 Q1023
Loading
Personal Weather Stations






























Interactive Weather Map New forecast layout! Learn more

10-Day Weather Forecast

Advertisements
Track Severe Weather on mobile